createdAt,value
2023-01-20T00:01:25.822Z,10.80
2023-01-20T00:03:53.742Z,10.20
2023-01-20T00:06:21.087Z,10.13
2023-01-20T00:08:52.101Z,9.55
2023-01-20T00:11:19.070Z,10.10
2023-01-20T00:13:46.004Z,9.52
2023-01-20T00:16:13.180Z,10.20
2023-01-20T00:18:40.377Z,10.45
2023-01-20T00:21:09.171Z,9.35
2023-01-20T00:23:36.310Z,9.48
2023-01-20T00:26:06.953Z,9.15
2023-01-20T00:28:34.489Z,9.20
2023-01-20T00:31:32.417Z,9.15
2023-01-20T00:34:01.016Z,9.00
2023-01-20T00:36:28.757Z,9.05
2023-01-20T00:38:55.548Z,9.18
2023-01-20T00:41:22.348Z,9.00
2023-01-20T00:43:49.227Z,9.20
2023-01-20T00:46:16.094Z,8.48
2023-01-20T00:48:42.975Z,7.95
2023-01-20T00:51:09.907Z,8.90
2023-01-20T00:53:36.815Z,8.80
2023-01-20T00:56:03.765Z,8.77
2023-01-20T00:58:30.596Z,8.02
2023-01-20T01:00:59.013Z,8.48
2023-01-20T01:03:28.204Z,9.27
2023-01-20T01:05:55.101Z,8.02
2023-01-20T01:08:21.875Z,8.27
2023-01-20T01:10:48.676Z,8.13
2023-01-20T01:13:15.481Z,7.43
2023-01-20T01:15:48.581Z,8.40
2023-01-20T01:18:15.385Z,8.55
2023-01-20T01:20:44.784Z,7.82
2023-01-20T01:23:12.428Z,8.10
2023-01-20T01:25:39.300Z,8.57
2023-01-20T01:28:06.233Z,8.18
2023-01-20T01:30:33.073Z,8.77
2023-01-20T01:32:59.928Z,7.18
2023-01-20T01:35:26.732Z,8.18
2023-01-20T01:37:53.780Z,7.20
2023-01-20T01:40:20.576Z,8.05
2023-01-20T01:42:47.436Z,7.40
2023-01-20T01:45:17.666Z,7.68
2023-01-20T01:47:45.855Z,7.78
2023-01-20T01:50:22.929Z,7.97
2023-01-20T01:52:51.490Z,7.65
2023-01-20T01:55:18.514Z,7.97
2023-01-20T01:57:45.392Z,7.47
2023-01-20T02:00:12.697Z,7.47
2023-01-20T02:02:39.679Z,7.93
2023-01-20T02:05:06.967Z,7.65
2023-01-20T02:07:34.045Z,8.82
2023-01-20T02:10:01.467Z,8.07
2023-01-20T02:12:28.270Z,7.85
2023-01-20T02:14:56.997Z,8.18
2023-01-20T02:17:32.714Z,7.78
2023-01-20T02:20:32.226Z,7.65
2023-01-20T02:23:01.844Z,7.88
2023-01-20T02:25:34.470Z,8.20
2023-01-20T02:28:10.175Z,7.63
2023-01-20T02:31:01.935Z,7.10
2023-01-20T02:33:33.533Z,7.40
2023-01-20T02:36:05.316Z,7.57
2023-01-20T02:38:39.770Z,7.03
2023-01-20T02:41:10.747Z,7.30
2023-01-20T02:43:47.302Z,7.13
2023-01-20T02:46:36.550Z,7.65
2023-01-20T02:49:15.513Z,7.43
2023-01-20T02:52:10.680Z,7.93
2023-01-20T02:54:37.915Z,7.60
2023-01-20T02:57:06.168Z,7.63
2023-01-20T02:59:37.948Z,7.85
2023-01-20T03:02:13.453Z,7.85
2023-01-20T03:04:52.998Z,7.50
2023-01-20T03:07:21.588Z,7.57
2023-01-20T03:09:50.049Z,7.88
2023-01-20T03:12:22.575Z,9.57
2023-01-20T03:14:52.043Z,8.73
2023-01-20T03:17:19.888Z,9.48
2023-01-20T03:19:46.775Z,8.48
2023-01-20T03:22:13.589Z,9.15
2023-01-20T03:24:40.348Z,9.45
2023-01-20T03:27:07.171Z,9.70
2023-01-20T03:29:33.958Z,8.85
2023-01-20T03:32:01.570Z,8.32
2023-01-20T03:34:29.820Z,9.32
2023-01-20T03:36:56.690Z,9.00
2023-01-20T03:39:23.768Z,9.32
2023-01-20T03:41:56.613Z,8.82
2023-01-20T03:44:47.719Z,8.40
2023-01-20T03:47:25.639Z,8.27
2023-01-20T03:50:37.664Z,8.35
2023-01-20T03:53:29.157Z,7.65
2023-01-20T03:55:55.890Z,8.63
2023-01-20T03:58:26.114Z,8.20
2023-01-20T04:00:52.973Z,8.65
2023-01-20T04:03:25.435Z,8.18
2023-01-20T04:05:52.277Z,9.27
2023-01-20T04:08:19.488Z,8.57
2023-01-20T04:10:47.260Z,8.68
2023-01-20T04:13:14.988Z,9.70
2023-01-20T04:15:44.519Z,8.55
2023-01-20T04:18:19.071Z,9.15
2023-01-20T04:20:47.903Z,8.57
2023-01-20T04:23:42.630Z,8.82
2023-01-20T04:26:09.450Z,9.68
2023-01-20T04:28:36.226Z,9.40
2023-01-20T04:31:03.156Z,9.18
2023-01-20T04:33:30.098Z,8.70
2023-01-20T04:35:56.933Z,9.43
2023-01-20T04:38:23.740Z,9.23
2023-01-20T04:40:50.500Z,9.95
2023-01-20T04:43:18.516Z,8.82
2023-01-20T04:45:45.326Z,8.57
2023-01-20T04:48:12.129Z,8.60
2023-01-20T04:50:42.094Z,8.77
2023-01-20T04:53:13.610Z,9.13
2023-01-20T04:55:40.411Z,9.48
2023-01-20T04:58:07.250Z,9.68
2023-01-20T05:00:34.112Z,9.07
2023-01-20T05:03:02.597Z,9.00
2023-01-20T05:05:29.593Z,9.38
2023-01-20T05:07:57.241Z,9.05
2023-01-20T05:10:24.021Z,8.63
2023-01-20T05:12:50.853Z,8.80
2023-01-20T05:15:17.736Z,8.70
2023-01-20T05:17:44.574Z,9.55
2023-01-20T05:20:11.650Z,8.40
2023-01-20T05:22:38.474Z,8.77
2023-01-20T05:25:05.807Z,9.43
2023-01-20T05:27:35.354Z,9.95
2023-01-20T05:30:02.828Z,9.77
2023-01-20T05:32:29.670Z,9.50
2023-01-20T05:34:56.528Z,9.98
2023-01-20T05:37:23.400Z,9.05
2023-01-20T05:39:50.227Z,9.40
2023-01-20T05:42:17.091Z,9.02
2023-01-20T05:44:43.906Z,9.88
2023-01-20T05:47:10.791Z,9.30
2023-01-20T05:49:37.576Z,9.68
2023-01-20T05:52:04.567Z,9.07
2023-01-20T05:54:31.425Z,8.60
2023-01-20T05:56:59.094Z,9.23
2023-01-20T05:59:26.012Z,10.27
2023-01-20T06:01:52.792Z,9.23
2023-01-20T06:04:19.606Z,9.45
2023-01-20T06:06:46.389Z,10.80
2023-01-20T06:09:13.187Z,9.90
2023-01-20T06:11:40.011Z,8.73
2023-01-20T06:14:06.810Z,8.77
2023-01-20T06:16:33.708Z,8.77
2023-01-20T06:19:00.524Z,9.70
2023-01-20T06:21:27.425Z,9.35
2023-01-20T06:23:54.549Z,10.05
2023-01-20T06:26:21.348Z,9.30
2023-01-20T06:28:48.271Z,9.40
2023-01-20T06:31:15.992Z,9.68
2023-01-20T06:33:43.031Z,9.90
2023-01-20T06:36:13.629Z,9.88
2023-01-20T06:38:40.627Z,9.00
2023-01-20T06:41:08.933Z,9.18
2023-01-20T06:43:35.827Z,9.07
2023-01-20T06:46:04.030Z,9.43
2023-01-20T06:48:31.070Z,9.48
2023-01-20T06:51:07.929Z,9.07
2023-01-20T06:53:34.713Z,9.52
2023-01-20T06:56:01.597Z,9.75
2023-01-20T06:58:30.260Z,9.35
2023-01-20T07:00:57.399Z,9.02
2023-01-20T07:03:24.434Z,9.68
2023-01-20T07:06:03.590Z,9.82
2023-01-20T07:08:30.628Z,9.85
2023-01-20T07:10:57.439Z,9.20
2023-01-20T07:13:24.312Z,9.63
2023-01-20T07:15:51.128Z,10.68
2023-01-20T07:18:17.896Z,9.55
2023-01-20T07:20:44.705Z,9.70
2023-01-20T07:23:11.536Z,10.02
2023-01-20T07:25:39.621Z,9.63
2023-01-20T07:28:06.517Z,10.50
2023-01-20T07:30:33.409Z,10.32
2023-01-20T07:33:00.356Z,10.75
2023-01-20T07:35:27.188Z,9.43
2023-01-20T07:37:53.997Z,9.55
2023-01-20T07:40:20.876Z,10.05
2023-01-20T07:42:47.732Z,10.57
2023-01-20T07:45:14.909Z,10.18
2023-01-20T07:47:42.034Z,10.40
2023-01-20T07:50:09.501Z,9.85
2023-01-20T07:52:36.313Z,9.73
2023-01-20T07:55:03.213Z,10.50
2023-01-20T07:57:30.347Z,10.05
2023-01-20T07:59:57.162Z,10.20
2023-01-20T08:02:24.025Z,9.98
2023-01-20T08:04:50.847Z,9.93
2023-01-20T08:07:17.676Z,10.48
2023-01-20T08:09:44.541Z,9.98
2023-01-20T08:12:11.389Z,10.32
2023-01-20T08:14:38.231Z,10.05
2023-01-20T08:17:05.075Z,9.85
2023-01-20T08:19:31.870Z,9.95
2023-01-20T08:21:58.771Z,10.68
2023-01-20T08:24:25.577Z,10.38
2023-01-20T08:26:52.416Z,9.93
2023-01-20T08:29:19.179Z,10.35
2023-01-20T08:31:46.168Z,9.63
2023-01-20T08:34:13.134Z,10.63
2023-01-20T08:36:40.379Z,10.38
2023-01-20T08:39:09.809Z,10.73
2023-01-20T08:41:38.068Z,10.45
2023-01-20T08:44:06.002Z,10.15
2023-01-20T08:46:32.859Z,11.07
2023-01-20T08:48:59.704Z,9.48
2023-01-20T08:51:31.645Z,10.45
2023-01-20T08:53:59.107Z,10.25
2023-01-20T08:56:25.997Z,10.30
2023-01-20T08:58:54.081Z,10.15
2023-01-20T09:01:22.682Z,9.30
2023-01-20T09:04:04.214Z,10.02
2023-01-20T09:06:42.326Z,10.07
2023-01-20T09:09:09.180Z,10.30
2023-01-20T09:11:36.125Z,10.57
2023-01-20T09:14:03.581Z,10.52
2023-01-20T09:16:30.372Z,9.88
2023-01-20T09:18:57.157Z,9.95
2023-01-20T09:21:24.080Z,10.93
2023-01-20T09:23:51.326Z,11.23
2023-01-20T09:26:34.277Z,10.55
2023-01-20T09:29:09.720Z,9.50
2023-01-20T09:31:44.681Z,10.35
2023-01-20T09:34:21.669Z,10.05
2023-01-20T09:36:56.030Z,10.10
2023-01-20T09:39:41.458Z,10.60
2023-01-20T09:42:42.576Z,11.00
2023-01-20T09:45:25.119Z,10.18
2023-01-20T09:47:52.174Z,10.25
2023-01-20T09:50:56.330Z,10.75
2023-01-20T09:54:08.924Z,10.80
2023-01-20T09:56:38.395Z,11.23
2023-01-20T09:59:11.095Z,10.40
2023-01-20T10:01:42.329Z,10.50
2023-01-20T10:04:12.243Z,11.80
2023-01-20T10:06:49.097Z,10.45
2023-01-20T10:09:43.504Z,10.88
2023-01-20T10:12:15.910Z,10.52
2023-01-20T10:14:51.211Z,10.73
2023-01-20T10:17:27.759Z,10.95
2023-01-20T10:20:20.612Z,11.20
2023-01-20T10:23:03.288Z,10.75
2023-01-20T10:25:39.057Z,11.52
2023-01-20T10:28:12.488Z,11.23
2023-01-20T10:30:39.295Z,10.65
2023-01-20T10:33:13.354Z,11.25
2023-01-20T10:35:53.671Z,10.77
2023-01-20T10:38:39.239Z,11.27
2023-01-20T10:41:17.602Z,10.82
2023-01-20T10:43:45.468Z,11.43
2023-01-20T10:46:23.108Z,10.50
2023-01-20T10:48:49.923Z,11.27
2023-01-20T10:51:31.859Z,10.53
2023-01-20T10:54:20.033Z,11.50
2023-01-20T10:56:54.058Z,11.50
2023-01-20T10:59:48.280Z,11.68
2023-01-20T11:02:26.609Z,10.88
2023-01-20T11:04:57.547Z,11.40
2023-01-20T11:07:24.428Z,10.40
2023-01-20T11:09:51.234Z,10.40
2023-01-20T11:12:20.753Z,10.95
2023-01-20T11:14:47.623Z,11.10
2023-01-20T11:17:20.421Z,11.47
2023-01-20T11:19:54.731Z,11.65
2023-01-20T11:22:36.561Z,11.60
2023-01-20T11:25:04.269Z,11.20
2023-01-20T11:27:48.981Z,11.30
2023-01-20T11:30:29.843Z,11.23
2023-01-20T11:33:18.458Z,11.48
2023-01-20T11:35:59.317Z,11.77
2023-01-20T11:38:43.311Z,12.05
2023-01-20T11:41:26.461Z,11.77
2023-01-20T11:43:57.504Z,12.63
2023-01-20T11:46:25.532Z,12.88
2023-01-20T11:49:24.434Z,12.85
2023-01-20T11:51:53.184Z,12.95
2023-01-20T11:54:24.616Z,12.52
2023-01-20T11:56:56.088Z,13.83
2023-01-20T11:59:27.057Z,13.73
2023-01-20T12:02:06.930Z,13.73
2023-01-20T12:04:56.476Z,13.35
2023-01-20T12:07:45.746Z,13.73
2023-01-20T12:10:18.481Z,13.30
2023-01-20T12:12:51.517Z,14.00
2023-01-20T12:15:25.900Z,14.00
2023-01-20T12:18:21.755Z,14.60
2023-01-20T12:21:10.346Z,13.98
2023-01-20T12:23:55.579Z,13.13
2023-01-20T12:26:22.855Z,14.05
2023-01-20T12:28:52.560Z,15.60
2023-01-20T12:31:20.403Z,14.55
2023-01-20T12:33:51.510Z,14.20
2023-01-20T12:36:31.144Z,13.87
2023-01-20T12:39:00.931Z,13.57
2023-01-20T12:41:47.481Z,14.02
2023-01-20T12:44:17.206Z,13.93
2023-01-20T12:46:54.305Z,14.45
2023-01-20T12:49:47.117Z,14.07
2023-01-20T12:52:27.172Z,14.65
2023-01-20T12:55:29.137Z,13.68
2023-01-20T12:58:29.912Z,14.32
2023-01-20T13:01:20.353Z,13.93
2023-01-20T13:04:05.710Z,14.47
2023-01-20T13:06:53.995Z,14.25
2023-01-20T13:09:23.872Z,13.65
2023-01-20T13:11:53.588Z,14.48
2023-01-20T13:14:49.388Z,15.63
2023-01-20T13:17:16.493Z,13.63
2023-01-20T13:19:43.550Z,14.82
2023-01-20T13:22:18.492Z,14.13
2023-01-20T13:24:46.789Z,15.40
2023-01-20T13:27:14.011Z,15.70
2023-01-20T13:29:43.007Z,13.70
2023-01-20T13:32:35.328Z,14.38
2023-01-20T13:35:20.476Z,13.88
2023-01-20T13:37:51.207Z,13.82
2023-01-20T13:40:36.157Z,13.88
2023-01-20T13:43:21.607Z,14.10
2023-01-20T13:45:48.937Z,13.65
2023-01-20T13:48:15.728Z,13.55
2023-01-20T13:50:43.392Z,12.48
2023-01-20T13:53:10.067Z,12.70
2023-01-20T13:55:45.510Z,13.60
2023-01-20T13:58:28.896Z,13.07
2023-01-20T14:01:04.112Z,13.70
2023-01-20T14:03:32.812Z,13.15
2023-01-20T14:06:00.557Z,13.93
2023-01-20T14:08:29.522Z,12.93
2023-01-20T14:11:15.097Z,14.40
2023-01-20T14:14:06.137Z,12.70
2023-01-20T14:16:35.664Z,12.18
2023-01-20T14:19:14.988Z,13.20
2023-01-20T14:21:42.189Z,12.87
2023-01-20T14:24:37.860Z,12.65
2023-01-20T14:27:19.665Z,11.85
2023-01-20T14:29:47.615Z,11.65
2023-01-20T14:32:29.081Z,12.10
2023-01-20T14:34:56.043Z,12.53
2023-01-20T14:37:36.297Z,12.10
2023-01-20T14:40:27.695Z,12.07
2023-01-20T14:42:58.813Z,11.18
2023-01-20T14:45:27.232Z,11.68
2023-01-20T14:47:54.205Z,11.90
2023-01-20T14:50:21.093Z,11.02
2023-01-20T14:52:48.459Z,11.85
2023-01-20T14:55:40.843Z,12.18
2023-01-20T14:58:08.866Z,11.40
2023-01-20T15:00:35.757Z,11.20
2023-01-20T15:03:11.728Z,10.48
2023-01-20T15:05:43.039Z,11.70
2023-01-20T15:08:14.913Z,11.50
2023-01-20T15:10:41.818Z,11.77
2023-01-20T15:13:27.454Z,11.48
2023-01-20T15:16:21.254Z,12.20
2023-01-20T15:19:28.610Z,12.38
2023-01-20T15:22:11.112Z,11.98
2023-01-20T15:24:38.377Z,12.82
2023-01-20T15:27:21.174Z,12.98
2023-01-20T15:30:01.945Z,12.70
2023-01-20T15:32:28.734Z,14.88
2023-01-20T15:34:55.533Z,14.32
2023-01-20T15:37:23.255Z,13.80
2023-01-20T15:39:50.057Z,14.98
2023-01-20T15:42:18.584Z,14.82
2023-01-20T15:44:45.702Z,14.60
2023-01-20T15:47:29.388Z,15.02
2023-01-20T15:49:56.156Z,15.05
2023-01-20T15:52:22.989Z,15.15
2023-01-20T15:54:49.772Z,14.93
2023-01-20T15:57:16.959Z,15.55
2023-01-20T15:59:47.692Z,14.75
2023-01-20T16:02:19.228Z,15.65
2023-01-20T16:04:46.033Z,17.00
2023-01-20T16:07:17.579Z,16.77
2023-01-20T16:09:44.830Z,16.27
2023-01-20T16:12:15.739Z,17.55
2023-01-20T16:14:42.598Z,17.70
2023-01-20T16:17:12.666Z,16.80
2023-01-20T16:19:39.653Z,16.13
2023-01-20T16:22:07.597Z,16.85
2023-01-20T16:24:35.141Z,17.15
2023-01-20T16:27:04.299Z,17.08
2023-01-20T16:29:31.844Z,16.80
2023-01-20T16:31:58.691Z,17.88
2023-01-20T16:34:25.552Z,16.35
2023-01-20T16:36:52.442Z,16.95
2023-01-20T16:39:19.221Z,17.42
2023-01-20T16:41:48.421Z,17.15
2023-01-20T16:44:15.349Z,16.88
2023-01-20T16:46:42.275Z,17.60
2023-01-20T16:49:09.065Z,17.02
2023-01-20T16:51:36.055Z,17.08
2023-01-20T16:54:02.958Z,17.40
2023-01-20T16:56:30.779Z,16.98
2023-01-20T16:58:59.252Z,16.17
2023-01-20T17:01:26.268Z,17.13
2023-01-20T17:03:55.435Z,17.25
2023-01-20T17:06:24.702Z,17.30
2023-01-20T17:08:53.003Z,17.95
2023-01-20T17:11:24.573Z,17.45
2023-01-20T17:13:51.682Z,18.42
2023-01-20T17:16:18.920Z,17.45
2023-01-20T17:18:55.236Z,17.30
2023-01-20T17:21:22.783Z,16.42
2023-01-20T17:23:53.513Z,17.48
2023-01-20T17:26:20.634Z,16.85
2023-01-20T17:28:47.883Z,16.67
2023-01-20T17:31:14.785Z,17.17
2023-01-20T17:33:47.804Z,17.20
2023-01-20T17:36:16.744Z,17.52
2023-01-20T17:38:43.951Z,17.10
2023-01-20T17:41:11.243Z,16.83
2023-01-20T17:43:41.453Z,16.77
2023-01-20T17:46:15.853Z,16.35
2023-01-20T17:48:43.275Z,16.45
2023-01-20T17:51:20.751Z,16.35
2023-01-20T17:53:47.853Z,17.05
2023-01-20T17:56:15.018Z,16.40
2023-01-20T17:58:45.360Z,17.77
2023-01-20T18:01:16.390Z,16.90
2023-01-20T18:03:43.870Z,17.15
2023-01-20T18:06:11.863Z,16.48
2023-01-20T18:08:38.792Z,15.60
2023-01-20T18:11:12.962Z,16.42
2023-01-20T18:13:39.805Z,15.13
2023-01-20T18:16:08.052Z,15.75
2023-01-20T18:18:34.938Z,15.57
2023-01-20T18:21:21.511Z,15.98
2023-01-20T18:23:48.560Z,15.32
2023-01-20T18:26:16.357Z,16.02
2023-01-20T18:28:43.495Z,15.00
2023-01-20T18:31:15.241Z,15.00
2023-01-20T18:33:49.837Z,15.45
2023-01-20T18:36:26.622Z,14.88
2023-01-20T18:38:55.081Z,16.05
2023-01-20T18:41:21.950Z,15.27
2023-01-20T18:43:49.154Z,13.88
2023-01-20T18:46:16.113Z,15.23
2023-01-20T18:48:47.365Z,15.38
2023-01-20T18:51:15.313Z,15.18
2023-01-20T18:53:43.160Z,14.38
2023-01-20T18:56:12.567Z,14.93
2023-01-20T18:58:39.620Z,14.27
2023-01-20T19:01:07.704Z,14.15
2023-01-20T19:03:34.707Z,13.85
2023-01-20T19:06:06.040Z,13.38
2023-01-20T19:08:32.963Z,14.02
2023-01-20T19:11:03.418Z,13.98
2023-01-20T19:13:30.243Z,14.57
2023-01-20T19:15:57.262Z,15.32
2023-01-20T19:18:24.414Z,14.13
2023-01-20T19:20:51.289Z,14.10
2023-01-20T19:23:18.246Z,14.50
2023-01-20T19:25:45.028Z,14.32
2023-01-20T19:28:12.351Z,14.35
2023-01-20T19:30:39.177Z,14.23
2023-01-20T19:33:06.166Z,14.13
2023-01-20T19:35:33.857Z,15.05
2023-01-20T19:38:00.625Z,14.60
2023-01-20T19:40:27.437Z,14.48
2023-01-20T19:42:54.305Z,14.55
2023-01-20T19:45:21.059Z,14.82
2023-01-20T19:47:47.891Z,13.73
2023-01-20T19:50:15.287Z,13.55
2023-01-20T19:52:42.227Z,14.25
2023-01-20T19:55:10.397Z,15.10
2023-01-20T19:57:37.210Z,13.88
2023-01-20T20:00:04.932Z,13.93
2023-01-20T20:02:31.811Z,14.27
2023-01-20T20:04:58.662Z,14.55
2023-01-20T20:07:25.474Z,13.93
2023-01-20T20:09:52.286Z,14.75
2023-01-20T20:12:19.029Z,14.45
2023-01-20T20:14:46.010Z,15.80
2023-01-20T20:17:13.406Z,13.90
2023-01-20T20:19:40.212Z,13.82
2023-01-20T20:22:07.069Z,14.43
2023-01-20T20:24:33.961Z,14.23
2023-01-20T20:27:00.769Z,15.20
2023-01-20T20:29:28.148Z,14.15
2023-01-20T20:31:54.960Z,14.35
2023-01-20T20:34:21.849Z,14.52
2023-01-20T20:36:48.739Z,14.38
2023-01-20T20:39:16.616Z,14.30
2023-01-20T20:41:43.532Z,15.27
2023-01-20T20:44:10.937Z,14.77
2023-01-20T20:46:37.786Z,13.40
2023-01-20T20:49:04.593Z,14.20
2023-01-20T20:51:32.822Z,14.50
2023-01-20T20:54:00.762Z,15.27
2023-01-20T20:56:31.896Z,15.32
2023-01-20T20:59:02.571Z,13.85
2023-01-20T21:01:31.544Z,14.23
2023-01-20T21:04:00.707Z,15.38
2023-01-20T21:06:27.897Z,14.60
2023-01-20T21:08:54.790Z,13.45
2023-01-20T21:11:22.458Z,15.38
2023-01-20T21:13:49.724Z,14.60
2023-01-20T21:16:17.773Z,13.95
2023-01-20T21:18:44.710Z,14.18
2023-01-20T21:21:12.778Z,14.20
2023-01-20T21:23:41.054Z,14.13
2023-01-20T21:26:12.077Z,13.43
2023-01-20T21:28:39.814Z,13.07
2023-01-20T21:31:07.995Z,13.23
2023-01-20T21:33:36.820Z,13.65
2023-01-20T21:36:07.144Z,13.30
2023-01-20T21:38:34.038Z,13.30
2023-01-20T21:41:09.861Z,12.80
2023-01-20T21:43:59.424Z,13.10
2023-01-20T21:46:30.944Z,13.55
2023-01-20T21:49:16.099Z,13.65
2023-01-20T21:52:01.314Z,12.30
2023-01-20T21:54:29.337Z,12.30
2023-01-20T21:56:56.205Z,12.55
2023-01-20T21:59:23.207Z,12.32
2023-01-20T22:01:50.443Z,12.82
2023-01-20T22:04:17.457Z,12.73
2023-01-20T22:06:44.458Z,11.75
2023-01-20T22:09:11.574Z,12.32
2023-01-20T22:11:38.455Z,11.90
2023-01-20T22:14:05.425Z,12.75
2023-01-20T22:16:32.562Z,12.75
2023-01-20T22:18:59.520Z,13.60
2023-01-20T22:21:26.832Z,13.27
2023-01-20T22:23:53.970Z,12.77
2023-01-20T22:26:20.915Z,13.93
2023-01-20T22:28:47.800Z,13.82
2023-01-20T22:31:20.123Z,14.07
2023-01-20T22:33:53.634Z,15.35
2023-01-20T22:36:20.876Z,14.60
2023-01-20T22:38:49.047Z,15.05
2023-01-20T22:41:15.994Z,14.15
2023-01-20T22:43:48.115Z,15.00
2023-01-20T22:46:16.925Z,14.98
2023-01-20T22:48:43.899Z,14.65
2023-01-20T22:51:15.038Z,14.82
2023-01-20T22:53:42.055Z,15.07
2023-01-20T22:56:29.832Z,14.70
2023-01-20T22:58:57.344Z,13.65
2023-01-20T23:01:29.088Z,14.93
2023-01-20T23:03:57.179Z,13.80
2023-01-20T23:06:24.499Z,13.43
2023-01-20T23:08:51.336Z,13.25
2023-01-20T23:11:19.033Z,14.48
2023-01-20T23:13:46.767Z,13.88
2023-01-20T23:16:18.851Z,14.65
2023-01-20T23:18:46.389Z,14.25
2023-01-20T23:21:13.293Z,14.43
2023-01-20T23:23:40.392Z,13.05
2023-01-20T23:26:10.408Z,12.93
2023-01-20T23:28:37.225Z,14.05
2023-01-20T23:31:08.284Z,14.52
2023-01-20T23:33:35.123Z,14.45
2023-01-20T23:36:06.554Z,13.85
2023-01-20T23:38:33.471Z,13.70
2023-01-20T23:41:00.493Z,13.82
2023-01-20T23:43:27.324Z,13.87
2023-01-20T23:45:57.609Z,14.02
2023-01-20T23:48:24.515Z,13.60
2023-01-20T23:50:51.684Z,14.45
2023-01-20T23:53:18.527Z,14.70
2023-01-20T23:55:45.394Z,14.95
2023-01-20T23:58:12.215Z,15.30
